createdAt,value
2022-09-06T15:49:32.497Z,34.10
2022-09-06T15:52:02.785Z,35.00
2022-09-06T15:54:48.939Z,35.60
2022-09-06T15:57:17.713Z,35.20
2022-09-06T15:59:46.013Z,35.60
2022-09-06T16:02:14.305Z,36.30
2022-09-06T16:04:42.199Z,36.90
2022-09-06T16:07:10.347Z,36.80
2022-09-06T16:09:38.778Z,37.60
2022-09-06T16:12:07.211Z,37.50
2022-09-06T16:14:35.866Z,38.30
2022-09-06T16:17:03.637Z,38.70
2022-09-06T16:19:31.004Z,39.20
2022-09-06T16:21:59.250Z,38.90
2022-09-06T16:24:27.079Z,39.20
2022-09-06T16:26:54.759Z,39.90
2022-09-06T16:29:22.444Z,40.00
2022-09-06T16:31:50.034Z,39.50
2022-09-06T16:34:17.736Z,40.30
2022-09-06T16:36:45.239Z,40.70
2022-09-06T16:39:12.771Z,40.60
2022-09-06T16:41:44.053Z,41.00
2022-09-06T16:44:16.935Z,41.40
2022-09-06T16:46:49.476Z,41.50
2022-09-06T16:49:19.416Z,42.00
2022-09-06T16:51:48.880Z,42.50
2022-09-06T16:54:18.472Z,42.90
2022-09-06T16:56:46.258Z,43.20
2022-09-06T16:59:15.402Z,43.30
2022-09-06T17:01:43.690Z,43.30
2022-09-06T17:04:12.940Z,43.30
2022-09-06T17:06:47.200Z,43.50
2022-09-06T17:09:20.312Z,43.70
2022-09-06T17:11:51.304Z,44.20
2022-09-06T17:14:19.081Z,44.20
2022-09-06T17:17:05.140Z,44.90
2022-09-06T17:19:39.601Z,44.70
2022-09-06T17:22:15.967Z,45.00
2022-09-06T17:24:44.127Z,45.30
2022-09-06T23:33:42.984Z,76.30
2022-09-06T23:36:13.893Z,77.20
2022-09-06T23:38:42.883Z,77.00
2022-09-06T23:41:10.946Z,77.70
2022-09-06T23:43:41.057Z,77.40
2022-09-06T23:46:13.743Z,77.60
2022-09-06T23:48:43.090Z,78.10
2022-09-06T23:51:12.483Z,78.00
2022-09-06T23:53:40.257Z,78.60
2022-09-06T23:56:08.397Z,78.50
2022-09-06T23:58:36.230Z,78.90
